Current Weather

Norman Y Mineta San Jose Intl

San Jose, California (KSJC)

Report from: Tuesday, June 18, 2024 5:53 AM PDT
Current time: Tuesday, June 18, 2024 6:20 AM PDT

Nearby weather – Weather history – Daily summaries
Weather forecast

Temperature15.0°C (59.0°F)
Dew point5.0°C (41.0°F)
Winds 3 kts (1.5 m/s, 3.5 mph) Southeast (140°)
Visibility10 mi. (16.1 km)
Clouds Few clouds 9,000 ft. (2,743 m)
Scattered clouds 12,000 ft. (3,658 m)
Scattered clouds 16,000 ft. (4,877 m)
Altimeter29.81 in.Hg (1009 mB)
Relative humidity51 %
Density altitude262 ft. (80 m)
Sea-level pressure100.9 kPa (1009 mB, 29.80 in.Hg)
Remarks System requires maintenance
Automated weather observing station with precipitation discriminator
Flight conditions Visual Meteorological Conditions
Raw dataKSJC 181253Z 14003KT 10SM FEW090 SCT120 SCT160 15/05 A2981 RMK AO2 SLP093 T01500050 $
An error has occurred. This application may no longer respond until reloaded. Reload 🗙